Time;durP1;ratioP1;P1;durP2;ratioP2;P2;SDS_P1;SDS_P2;PMS_P1;PMS_P2;Temp;Humidity;BMP_temperature;BMP_pressure;BME280_temperature;BME280_humidity;BME280_pressure;Samples;Min_cycle;Max_cycle;Signal;HPM_P1;HPM_P2
2024/02/04 00:01:29;;;;;;;5.95;1.08;;;7.60;99.90;;;;;;5078149;28;20043;-65
2024/02/04 00:03:55;;;;;;;11.30;2.95;;;7.60;99.90;;;;;;5063288;28;20048;-65
2024/02/04 00:06:21;;;;;;;6.22;1.25;;;7.60;99.90;;;;;;5095980;28;20416;-65
2024/02/04 00:08:46;;;;;;;10.68;1.77;;;7.50;99.90;;;;;;5078245;28;20089;-65
2024/02/04 00:11:12;;;;;;;13.05;2.10;;;7.50;99.90;;;;;;5076691;28;20040;-65
2024/02/04 00:13:38;;;;;;;9.77;2.08;;;7.60;99.90;;;;;;5074187;28;20789;-65
2024/02/04 00:16:05;;;;;;;11.13;1.83;;;7.50;99.90;;;;;;5061744;28;20059;-65
2024/02/04 00:18:32;;;;;;;8.77;1.50;;;7.50;99.90;;;;;;5073570;28;20044;-65
2024/02/04 00:20:57;;;;;;;5.00;1.00;;;7.50;99.90;;;;;;5108379;27;20036;-65
2024/02/04 00:23:23;;;;;;;9.25;1.40;;;7.50;99.90;;;;;;5079492;28;20503;-65
2024/02/04 00:25:48;;;;;;;11.57;1.75;;;7.40;99.90;;;;;;5096205;28;20040;-65
2024/02/04 00:28:14;;;;;;;10.35;1.20;;;7.40;99.90;;;;;;5076428;28;20036;-65
2024/02/04 00:30:40;;;;;;;8.10;1.20;;;7.50;99.90;;;;;;5105155;27;20040;-65
2024/02/04 00:33:06;;;;;;;6.53;1.63;;;7.50;99.90;;;;;;5075629;28;20035;-65
2024/02/04 00:35:31;;;;;;;9.00;1.42;;;7.40;99.90;;;;;;5078852;28;20036;-65
2024/02/04 00:37:57;;;;;;;7.70;1.63;;;7.40;99.90;;;;;;5081910;28;20385;-65
2024/02/04 00:40:22;;;;;;;9.05;1.70;;;7.40;99.90;;;;;;5096218;28;20043;-65
2024/02/04 00:42:48;;;;;;;8.60;2.28;;;7.50;99.90;;;;;;5074459;28;20462;-65
2024/02/04 00:45:14;;;;;;;4.85;0.70;;;7.30;99.90;;;;;;5073130;28;20481;-65
2024/02/04 00:47:39;;;;;;;5.43;1.50;;;7.30;99.90;;;;;;5077689;28;20093;-65
2024/02/04 00:50:06;;;;;;;6.75;1.13;;;7.30;99.90;;;;;;5095541;28;20064;-65
2024/02/04 00:52:32;;;;;;;10.95;1.75;;;7.30;99.90;;;;;;5111003;27;20088;-65
2024/02/04 00:54:57;;;;;;;7.95;1.30;;;7.30;99.90;;;;;;5083583;28;20040;-65
2024/02/04 00:57:23;;;;;;;5.05;0.90;;;7.20;99.90;;;;;;5080352;28;20043;-65
2024/02/04 00:59:50;;;;;;;6.93;1.45;;;7.10;99.90;;;;;;5074417;28;20039;-65
2024/02/04 01:02:15;;;;;;;6.57;1.13;;;7.20;99.90;;;;;;5081611;28;20490;-65
2024/02/04 01:04:41;;;;;;;11.02;2.05;;;7.20;99.90;;;;;;5068773;28;20036;-65
2024/02/04 01:07:07;;;;;;;7.07;1.50;;;7.20;99.90;;;;;;5077780;28;20044;-65
2024/02/04 01:09:32;;;;;;;7.80;1.58;;;7.10;99.90;;;;;;5078271;28;20028;-65
2024/02/04 01:11:58;;;;;;;11.10;1.42;;;7.20;99.90;;;;;;5073415;28;20432;-65
2024/02/04 01:14:24;;;;;;;12.73;2.70;;;7.10;99.90;;;;;;5077369;28;20042;-65
2024/02/04 01:16:49;;;;;;;7.95;1.48;;;7.10;99.90;;;;;;5092675;28;20422;-65
2024/02/04 01:19:15;;;;;;;10.25;1.80;;;7.10;99.90;;;;;;5091912;28;20097;-65
2024/02/04 01:21:41;;;;;;;7.45;1.42;;;7.00;99.90;;;;;;5094822;28;20116;-65
2024/02/04 01:24:06;;;;;;;8.65;1.20;;;7.10;99.90;;;;;;5077586;28;20039;-65
2024/02/04 01:26:32;;;;;;;10.07;1.15;;;7.10;99.90;;;;;;5079264;28;20054;-65
2024/02/04 01:28:57;;;;;;;8.73;1.63;;;7.00;99.90;;;;;;5095267;28;20130;-65
2024/02/04 01:31:23;;;;;;;10.93;1.73;;;7.10;99.90;;;;;;5093405;28;20051;-65
2024/02/04 01:33:49;;;;;;;11.65;1.40;;;7.00;99.90;;;;;;5095431;28;20394;-65
2024/02/04 01:36:14;;;;;;;10.80;1.30;;;7.00;99.90;;;;;;5078699;28;20031;-65
2024/02/04 01:38:40;;;;;;;7.88;1.00;;;7.00;99.90;;;;;;5077173;28;20031;-65
2024/02/04 01:41:05;;;;;;;10.88;2.25;;;7.10;99.90;;;;;;5074806;28;20036;-65
2024/02/04 01:43:31;;;;;;;11.40;1.25;;;7.00;99.90;;;;;;5077120;28;20543;-65
2024/02/04 01:45:57;;;;;;;8.35;1.67;;;7.00;99.90;;;;;;5078152;28;20046;-65
2024/02/04 01:48:23;;;;;;;8.60;0.98;;;7.00;99.90;;;;;;5075002;28;20083;-65
2024/02/04 01:50:52;;;;;;;13.60;1.10;;;7.00;99.90;;;;;;5092067;28;20478;-65
2024/02/04 01:53:21;;;;;;;8.68;2.00;;;7.00;99.90;;;;;;5071207;28;20542;-65
2024/02/04 01:55:47;;;;;;;12.65;0.98;;;6.90;99.90;;;;;;5065396;28;20036;-65
2024/02/04 01:58:13;;;;;;;9.65;1.73;;;7.00;99.90;;;;;;5077462;28;20131;-65
2024/02/04 02:00:40;;;;;;;7.13;1.25;;;6.90;99.90;;;;;;5076880;28;21522;-65
2024/02/04 02:03:08;;;;;;;9.80;1.30;;;6.90;99.90;;;;;;5089832;28;20079;-65
2024/02/04 02:05:34;;;;;;;9.05;1.55;;;7.00;99.90;;;;;;5076570;28;20054;-65
2024/02/04 02:08:00;;;;;;;9.93;1.02;;;6.90;99.90;;;;;;5088297;28;20032;-65
2024/02/04 02:10:25;;;;;;;9.93;1.50;;;7.00;99.90;;;;;;5091524;28;20117;-65
2024/02/04 02:12:54;;;;;;;7.18;1.02;;;6.90;99.90;;;;;;5071185;28;21517;-65
2024/02/04 02:15:30;;;;;;;7.88;1.65;;;6.90;99.90;;;;;;5073579;28;20044;-65
2024/02/04 02:18:15;;;;;;;6.45;1.23;;;6.90;99.90;;;;;;5104021;27;20115;-65
2024/02/04 02:21:09;;;;;;;9.07;1.80;;;6.80;99.90;;;;;;5108676;27;20036;-64
2024/02/04 02:23:44;;;;;;;8.80;1.95;;;6.80;99.90;;;;;;5091435;28;20482;-64
2024/02/04 02:26:10;;;;;;;10.82;2.05;;;6.80;99.90;;;;;;5076894;28;20051;-65
2024/02/04 02:28:35;;;;;;;11.65;3.03;;;6.80;99.90;;;;;;5079961;28;20071;-64
2024/02/04 02:31:01;;;;;;;7.50;1.67;;;6.80;99.90;;;;;;5059258;28;20125;-64
2024/02/04 02:33:27;;;;;;;10.77;2.30;;;6.80;99.90;;;;;;5095069;28;20118;-65
2024/02/04 02:35:57;;;;;;;11.93;1.83;;;6.90;99.90;;;;;;5095117;28;20127;-65
2024/02/04 02:38:56;;;;;;;9.32;1.92;;;6.80;99.90;;;;;;5072947;28;20032;-65
2024/02/04 02:41:23;;;;;;;9.73;2.20;;;6.80;99.90;;;;;;5105266;28;20100;-65
2024/02/04 02:43:52;;;;;;;14.40;3.03;;;6.80;99.90;;;;;;5091294;28;20359;-65
2024/02/04 02:46:19;;;;;;;12.93;3.13;;;6.80;99.90;;;;;;5095954;28;20377;-65
2024/02/04 02:48:44;;;;;;;11.52;2.78;;;6.80;99.90;;;;;;5072517;28;20047;-65
2024/02/04 02:51:10;;;;;;;8.95;2.85;;;6.80;99.90;;;;;;5093791;28;20028;-65
2024/02/04 02:53:35;;;;;;;12.45;2.97;;;6.70;99.90;;;;;;5076732;28;20097;-65
2024/02/04 02:56:01;;;;;;;16.05;2.90;;;6.80;99.90;;;;;;5075142;28;20024;-65
2024/02/04 02:58:26;;;;;;;16.63;4.30;;;6.70;99.90;;;;;;5096425;28;20035;-65
2024/02/04 03:00:52;;;;;;;10.02;3.40;;;6.70;99.90;;;;;;5079889;28;20105;-64
2024/02/04 03:03:18;;;;;;;11.55;2.65;;;6.60;99.90;;;;;;5099010;28;20040;-64
2024/02/04 03:05:43;;;;;;;9.95;3.35;;;6.70;99.90;;;;;;5098328;28;20459;-65
2024/02/04 03:08:09;;;;;;;12.93;3.08;;;6.70;99.90;;;;;;5101780;28;20032;-65
2024/02/04 03:10:34;;;;;;;9.75;2.83;;;6.70;99.90;;;;;;5063121;28;20474;-65
2024/02/04 03:13:00;;;;;;;13.40;2.55;;;6.70;99.90;;;;;;5073702;28;20120;-65
2024/02/04 03:15:27;;;;;;;10.25;3.00;;;6.70;99.90;;;;;;5094853;28;20097;-65
2024/02/04 03:17:52;;;;;;;11.90;2.30;;;6.70;99.90;;;;;;5098651;28;20104;-65
2024/02/04 03:20:18;;;;;;;12.18;3.47;;;6.70;99.90;;;;;;5079513;28;20036;-65
2024/02/04 03:22:46;;;;;;;11.15;2.83;;;6.60;99.90;;;;;;5076352;28;20136;-65
2024/02/04 03:25:11;;;;;;;10.40;2.22;;;6.60;99.90;;;;;;5087674;28;20039;-65
2024/02/04 03:27:39;;;;;;;12.50;2.80;;;6.60;99.90;;;;;;5078849;28;20040;-65
2024/02/04 03:30:05;;;;;;;9.13;2.20;;;6.60;99.90;;;;;;5095077;28;20378;-65
2024/02/04 03:32:33;;;;;;;9.80;2.00;;;6.60;99.90;;;;;;5097972;28;20040;-65
2024/02/04 03:35:00;;;;;;;10.18;2.20;;;6.60;99.90;;;;;;5074888;28;20123;-65
2024/02/04 03:37:26;;;;;;;12.15;2.65;;;6.60;99.90;;;;;;5109547;27;20486;-65
2024/02/04 03:39:51;;;;;;;14.85;2.67;;;6.60;99.90;;;;;;5078520;28;20040;-65
2024/02/04 03:42:18;;;;;;;9.18;1.85;;;6.50;99.90;;;;;;5084656;28;20035;-65
2024/02/04 03:44:44;;;;;;;14.55;2.83;;;6.60;99.90;;;;;;5109034;27;20119;-65
2024/02/04 03:47:09;;;;;;;13.05;2.17;;;6.60;99.90;;;;;;5097797;28;20123;-65
2024/02/04 03:49:35;;;;;;;14.85;2.33;;;6.60;99.90;;;;;;5077510;28;20042;-65
2024/02/04 03:52:00;;;;;;;17.20;2.50;;;6.60;99.90;;;;;;5093482;28;20101;-65
2024/02/04 03:54:26;;;;;;;15.20;2.15;;;6.60;99.90;;;;;;5091832;28;20486;-65
2024/02/04 03:56:51;;;;;;;12.18;2.03;;;6.60;99.90;;;;;;5095238;28;20044;-65
2024/02/04 03:59:17;;;;;;;15.93;2.33;;;6.60;99.90;;;;;;5078420;28;20038;-65
2024/02/04 04:01:49;;;;;;;11.05;1.50;;;6.50;99.90;;;;;;5078499;28;20515;-65
2024/02/04 04:04:16;;;;;;;11.50;1.58;;;6.60;99.90;;;;;;5062987;28;20082;-65
2024/02/04 04:06:43;;;;;;;15.60;2.63;;;6.60;99.90;;;;;;5075484;28;20043;-65
2024/02/04 04:09:08;;;;;;;16.60;1.48;;;6.60;99.90;;;;;;5060093;28;20059;-64
2024/02/04 04:11:34;;;;;;;12.02;2.25;;;6.70;99.90;;;;;;5077799;28;20044;-65
2024/02/04 04:13:59;;;;;;;12.00;2.10;;;6.60;99.90;;;;;;5077587;28;20068;-65
2024/02/04 04:16:25;;;;;;;9.65;2.28;;;6.60;99.90;;;;;;5077331;28;20543;-65
2024/02/04 04:18:51;;;;;;;6.03;0.95;;;6.60;99.90;;;;;;5092658;28;20479;-65
2024/02/04 04:21:17;;;;;;;11.43;2.58;;;6.60;99.90;;;;;;5096969;28;20036;-65
2024/02/04 04:23:42;;;;;;;9.75;1.70;;;6.70;99.90;;;;;;5106518;27;20627;-65
2024/02/04 04:26:08;;;;;;;11.02;1.50;;;6.60;99.90;;;;;;5077788;28;20108;-65
2024/02/04 04:28:34;;;;;;;10.75;1.80;;;6.70;99.90;;;;;;5076985;28;20058;-64
2024/02/04 04:31:00;;;;;;;12.50;1.95;;;6.70;99.90;;;;;;5079309;28;20044;-65
2024/02/04 04:33:25;;;;;;;14.05;2.15;;;6.70;99.90;;;;;;5075404;28;20129;-65
2024/02/04 04:35:51;;;;;;;8.18;1.00;;;6.70;99.90;;;;;;5097247;28;20064;-65
2024/02/04 04:38:16;;;;;;;10.57;1.15;;;6.70;99.90;;;;;;5075068;28;20097;-65
2024/02/04 04:40:42;;;;;;;10.95;1.30;;;6.90;99.90;;;;;;5076021;28;20133;-65
2024/02/04 04:43:08;;;;;;;11.30;1.33;;;6.70;99.90;;;;;;5077109;28;20081;-65
2024/02/04 04:45:34;;;;;;;16.67;1.80;;;6.70;99.90;;;;;;5080089;28;20047;-65
2024/02/04 04:47:59;;;;;;;9.63;1.85;;;6.80;99.90;;;;;;5078929;28;20042;-65
2024/02/04 04:50:25;;;;;;;14.05;2.28;;;6.70;99.90;;;;;;5091987;28;20133;-65
2024/02/04 04:52:51;;;;;;;12.18;1.83;;;6.80;99.90;;;;;;5096308;28;20211;-65
2024/02/04 04:55:16;;;;;;;9.77;1.40;;;6.70;99.90;;;;;;5058253;28;20047;-65
2024/02/04 04:57:42;;;;;;;9.32;1.30;;;6.70;99.90;;;;;;5075585;28;20386;-65
2024/02/04 05:00:09;;;;;;;9.32;1.17;;;6.70;99.90;;;;;;5073701;28;20036;-65
2024/02/04 05:02:36;;;;;;;8.68;1.10;;;6.70;99.90;;;;;;5073922;28;20126;-65
2024/02/04 05:05:02;;;;;;;12.65;2.25;;;6.80;99.90;;;;;;5095583;28;20413;-65
2024/02/04 05:07:27;;;;;;;16.10;1.95;;;6.80;99.90;;;;;;5105361;27;20044;-65
2024/02/04 05:09:53;;;;;;;12.35;1.48;;;6.70;99.90;;;;;;5095518;28;20466;-65
2024/02/04 05:12:19;;;;;;;7.32;1.45;;;6.70;99.90;;;;;;5074289;28;20040;-65
2024/02/04 05:14:44;;;;;;;10.68;1.98;;;6.70;99.90;;;;;;5092666;28;20038;-65
2024/02/04 05:17:10;;;;;;;10.75;2.20;;;6.80;99.90;;;;;;5091293;28;20075;-65
2024/02/04 05:19:35;;;;;;;9.93;1.55;;;6.80;99.90;;;;;;5110319;27;20650;-64
2024/02/04 05:22:02;;;;;;;16.20;3.35;;;6.80;99.90;;;;;;5075981;28;20055;-65
2024/02/04 05:24:28;;;;;;;10.45;1.75;;;6.80;99.90;;;;;;5093328;28;20464;-65
2024/02/04 05:26:54;;;;;;;15.65;2.17;;;6.80;99.90;;;;;;5094665;28;20040;-65
2024/02/04 05:29:19;;;;;;;8.52;1.98;;;6.80;99.90;;;;;;5105818;27;20048;-65
2024/02/04 05:31:45;;;;;;;10.63;2.55;;;6.80;99.90;;;;;;5076802;28;20397;-65
2024/02/04 05:34:11;;;;;;;8.60;1.90;;;6.80;99.90;;;;;;5095238;28;20028;-65
2024/02/04 05:36:36;;;;;;;9.57;1.23;;;6.90;99.90;;;;;;5095929;28;20032;-65
2024/02/04 05:39:13;;;;;;;7.85;1.42;;;6.80;99.90;;;;;;5061324;28;20530;-65
2024/02/04 05:41:39;;;;;;;8.02;1.13;;;6.80;99.90;;;;;;5077797;28;20051;-65
2024/02/04 05:44:05;;;;;;;11.15;1.88;;;6.90;99.90;;;;;;5081288;28;20497;-65
2024/02/04 05:46:32;;;;;;;10.25;1.83;;;6.90;99.90;;;;;;5078033;28;20058;-65
2024/02/04 05:48:58;;;;;;;10.23;1.23;;;6.90;99.90;;;;;;5092446;28;21579;-65
2024/02/04 05:51:23;;;;;;;7.95;1.27;;;6.90;99.90;;;;;;5096328;28;20088;-65
2024/02/04 05:53:49;;;;;;;6.80;1.10;;;6.90;99.90;;;;;;5095251;28;20027;-64
2024/02/04 05:56:15;;;;;;;6.72;1.13;;;6.90;99.90;;;;;;5092923;28;20032;-65
2024/02/04 05:58:40;;;;;;;8.70;1.40;;;6.90;99.90;;;;;;5094358;28;20075;-65
2024/02/04 06:01:06;;;;;;;10.32;2.00;;;6.90;99.90;;;;;;5092246;28;20489;-65
2024/02/04 06:03:32;;;;;;;12.70;1.67;;;6.90;99.90;;;;;;5076333;28;20039;-65
2024/02/04 06:05:57;;;;;;;10.32;1.50;;;6.90;99.90;;;;;;5091841;28;20040;-65
2024/02/04 06:08:23;;;;;;;10.85;1.60;;;6.90;99.90;;;;;;5100143;28;20028;-65
2024/02/04 06:10:49;;;;;;;8.65;1.50;;;6.90;99.90;;;;;;5092450;28;20492;-65
2024/02/04 06:13:14;;;;;;;9.93;1.95;;;7.00;99.90;;;;;;5075909;28;20089;-65
2024/02/04 06:15:40;;;;;;;9.35;1.55;;;6.90;99.90;;;;;;5082749;28;20036;-65
2024/02/04 06:18:06;;;;;;;8.60;1.40;;;7.00;99.90;;;;;;5100316;28;20479;-65
2024/02/04 06:20:31;;;;;;;12.85;2.05;;;7.00;99.90;;;;;;5081564;28;20119;-65
2024/02/04 06:22:57;;;;;;;11.02;1.50;;;7.10;99.90;;;;;;5093748;28;20040;-65
2024/02/04 06:25:23;;;;;;;12.90;1.58;;;7.00;99.90;;;;;;5110836;27;20090;-65
2024/02/04 06:27:49;;;;;;;12.38;1.65;;;7.00;99.90;;;;;;5111420;27;20044;-65
2024/02/04 06:30:16;;;;;;;7.82;1.25;;;7.10;99.90;;;;;;5078460;28;20118;-65
2024/02/04 06:32:41;;;;;;;9.25;2.13;;;7.00;99.90;;;;;;5077758;28;20036;-65
2024/02/04 06:35:07;;;;;;;11.40;1.90;;;7.10;99.90;;;;;;5094728;28;20050;-65
2024/02/04 06:37:33;;;;;;;14.93;2.38;;;7.10;99.90;;;;;;5093400;28;20121;-65
2024/02/04 06:39:58;;;;;;;7.32;1.38;;;7.10;99.90;;;;;;5077291;28;20173;-65
2024/02/04 06:42:24;;;;;;;11.95;1.33;;;7.10;99.90;;;;;;5077231;28;20032;-65
2024/02/04 06:44:50;;;;;;;8.45;1.75;;;7.10;99.90;;;;;;5078622;28;20138;-65
2024/02/04 06:47:15;;;;;;;12.38;2.17;;;7.20;99.90;;;;;;5076840;28;20070;-65
2024/02/04 06:49:45;;;;;;;8.98;1.13;;;7.20;99.90;;;;;;5091119;28;20474;-65
2024/02/04 06:52:11;;;;;;;10.63;1.73;;;7.20;99.90;;;;;;5093661;28;20040;-65
2024/02/04 06:54:36;;;;;;;10.32;1.58;;;7.20;99.90;;;;;;5080809;28;20062;-65
2024/02/04 06:57:02;;;;;;;11.48;1.83;;;7.20;99.90;;;;;;5096942;28;20122;-65
2024/02/04 06:59:28;;;;;;;17.42;2.10;;;7.30;99.90;;;;;;5092236;28;20024;-65
2024/02/04 07:01:53;;;;;;;10.23;1.67;;;7.30;99.90;;;;;;5066948;28;20500;-65
2024/02/04 07:04:21;;;;;;;14.85;2.83;;;7.20;99.90;;;;;;5071377;28;20088;-65
2024/02/04 07:06:47;;;;;;;14.75;2.28;;;7.30;99.90;;;;;;5085120;28;20043;-65
2024/02/04 07:09:13;;;;;;;8.85;1.83;;;7.30;99.90;;;;;;5076825;28;20122;-65
2024/02/04 07:11:39;;;;;;;13.18;2.50;;;7.30;99.90;;;;;;5068666;28;20468;-65
2024/02/04 07:14:06;;;;;;;11.60;1.88;;;7.30;99.90;;;;;;5084699;28;20046;-65
2024/02/04 07:16:32;;;;;;;19.42;2.95;;;7.30;99.90;;;;;;5097703;28;20038;-65
2024/02/04 07:18:58;;;;;;;9.68;3.10;;;7.30;99.90;;;;;;5091621;28;20492;-65
2024/02/04 07:21:23;;;;;;;13.73;1.65;;;7.30;99.90;;;;;;5091701;28;20128;-65
2024/02/04 07:23:49;;;;;;;13.15;1.80;;;7.30;99.90;;;;;;5093077;28;20055;-65
2024/02/04 07:26:15;;;;;;;12.20;1.73;;;7.40;99.90;;;;;;5074201;28;20051;-65
2024/02/04 07:28:41;;;;;;;8.43;1.70;;;7.40;99.90;;;;;;5091015;28;20036;-65
2024/02/04 07:31:07;;;;;;;11.25;1.67;;;7.40;99.90;;;;;;5094489;28;20460;-65
2024/02/04 07:33:33;;;;;;;11.18;1.63;;;7.40;99.90;;;;;;5091584;28;20038;-65
2024/02/04 07:35:58;;;;;;;13.40;2.08;;;7.40;99.90;;;;;;5074378;28;20032;-65
2024/02/04 07:38:24;;;;;;;12.45;2.17;;;7.40;99.90;;;;;;5078250;28;20466;-65
2024/02/04 07:40:52;;;;;;;9.40;1.35;;;7.40;99.90;;;;;;5092873;28;20035;-65
2024/02/04 07:43:18;;;;;;;14.40;2.10;;;7.40;99.90;;;;;;5071524;28;20043;-65
2024/02/04 07:45:44;;;;;;;12.30;1.83;;;7.40;99.90;;;;;;5049072;28;20040;-65
2024/02/04 07:48:10;;;;;;;12.60;1.88;;;7.40;99.90;;;;;;5075908;28;20040;-65
2024/02/04 07:50:36;;;;;;;8.98;1.23;;;7.40;99.90;;;;;;5077900;28;20039;-65
2024/02/04 07:53:01;;;;;;;15.77;1.73;;;7.40;99.90;;;;;;5093752;28;20027;-65
2024/02/04 07:55:27;;;;;;;17.02;2.45;;;7.40;99.90;;;;;;5058976;28;20117;-65
2024/02/04 07:57:53;;;;;;;13.45;1.77;;;7.50;99.90;;;;;;5091739;28;20466;-65
2024/02/04 08:00:19;;;;;;;9.13;2.13;;;7.50;99.90;;;;;;5075303;28;20044;-65
2024/02/04 08:02:45;;;;;;;8.80;1.30;;;7.50;99.90;;;;;;5095161;28;20123;-65
2024/02/04 08:05:11;;;;;;;15.55;2.95;;;7.50;99.90;;;;;;5104511;28;20039;-65
2024/02/04 08:07:36;;;;;;;8.50;1.58;;;7.50;99.90;;;;;;5080907;28;20051;-65
2024/02/04 08:10:02;;;;;;;12.70;1.58;;;7.60;99.90;;;;;;5073447;28;20047;-65
2024/02/04 08:12:28;;;;;;;9.32;2.28;;;7.60;99.90;;;;;;5083696;28;20032;-65
2024/02/04 08:14:54;;;;;;;13.82;2.00;;;7.60;99.90;;;;;;5079989;28;20032;-65
2024/02/04 08:17:19;;;;;;;11.63;1.40;;;7.70;99.90;;;;;;5090429;28;20093;-65
2024/02/04 08:19:45;;;;;;;8.80;1.73;;;7.80;99.90;;;;;;5095805;28;20039;-65
2024/02/04 08:22:11;;;;;;;6.65;2.15;;;7.80;99.90;;;;;;5071616;28;20474;-65
2024/02/04 08:24:36;;;;;;;14.73;2.03;;;7.90;99.90;;;;;;5077796;28;20069;-65
2024/02/04 08:27:03;;;;;;;10.43;1.85;;;7.90;99.90;;;;;;5092321;28;20126;-65
2024/02/04 08:29:29;;;;;;;9.40;1.65;;;7.90;99.90;;;;;;5079239;28;20043;-65
2024/02/04 08:31:55;;;;;;;10.73;1.13;;;7.90;99.90;;;;;;5074433;28;20039;-65
2024/02/04 08:34:23;;;;;;;10.85;1.83;;;8.00;99.90;;;;;;5093610;28;20486;-65
2024/02/04 08:36:49;;;;;;;10.60;1.40;;;8.00;99.90;;;;;;5077349;28;20054;-65
2024/02/04 08:39:15;;;;;;;8.40;1.17;;;8.10;99.90;;;;;;5099157;28;20362;-65
2024/02/04 08:41:41;;;;;;;11.98;1.95;;;8.00;99.90;;;;;;5078365;28;20035;-65
2024/02/04 08:44:07;;;;;;;12.18;1.75;;;8.10;99.90;;;;;;5076389;28;20040;-65
2024/02/04 08:46:33;;;;;;;8.40;1.45;;;8.10;99.90;;;;;;5079878;28;20043;-65
2024/02/04 08:48:58;;;;;;;10.25;1.20;;;8.20;99.90;;;;;;5077391;28;20071;-64
2024/02/04 08:51:24;;;;;;;8.32;1.30;;;8.20;99.90;;;;;;5097896;28;20028;-65
2024/02/04 08:53:49;;;;;;;7.55;1.08;;;8.20;99.90;;;;;;5077768;28;20036;-65
2024/02/04 08:56:15;;;;;;;6.95;2.05;;;8.20;99.90;;;;;;5076458;28;20101;-65
2024/02/04 08:58:40;;;;;;;7.35;1.00;;;8.30;99.90;;;;;;5077730;28;20048;-65
2024/02/04 09:01:06;;;;;;;6.90;1.77;;;8.30;99.90;;;;;;5081881;28;20052;-65
2024/02/04 09:03:33;;;;;;;7.82;2.10;;;8.30;99.90;;;;;;5062473;28;20402;-65
2024/02/04 09:05:59;;;;;;;8.52;1.08;;;8.40;99.90;;;;;;5079079;28;20527;-65
2024/02/04 09:08:25;;;;;;;10.40;1.20;;;8.30;99.90;;;;;;5099073;28;20065;-65
2024/02/04 09:10:50;;;;;;;6.30;1.40;;;8.40;99.90;;;;;;5077155;28;20094;-65
2024/02/04 09:13:16;;;;;;;6.35;1.30;;;8.50;99.90;;;;;;5080081;28;20085;-65
2024/02/04 09:15:42;;;;;;;10.30;1.20;;;8.50;99.90;;;;;;5097453;28;20488;-65
2024/02/04 09:18:07;;;;;;;9.07;1.30;;;8.50;99.90;;;;;;5095083;28;20656;-65
2024/02/04 09:20:33;;;;;;;8.18;1.45;;;8.50;99.90;;;;;;5067976;28;20451;-65
2024/02/04 09:22:59;;;;;;;7.15;1.30;;;8.60;99.90;;;;;;5093451;28;20032;-65
2024/02/04 09:25:25;;;;;;;8.45;1.35;;;8.60;99.90;;;;;;5094774;28;20042;-65
2024/02/04 09:27:51;;;;;;;6.80;1.25;;;8.60;99.90;;;;;;5099242;28;20039;-65
2024/02/04 09:30:16;;;;;;;7.03;1.52;;;8.70;99.90;;;;;;5077191;28;20044;-65
2024/02/04 09:32:42;;;;;;;4.93;1.05;;;8.80;99.90;;;;;;5110374;27;20083;-67
2024/02/04 09:35:09;;;;;;;5.05;0.95;;;8.80;99.90;;;;;;5078796;28;20040;-64
2024/02/04 09:37:35;;;;;;;9.32;1.08;;;8.90;99.90;;;;;;5110721;27;20097;-65
2024/02/04 09:40:01;;;;;;;5.22;1.00;;;8.90;99.90;;;;;;5074178;28;20107;-66
2024/02/04 09:42:28;;;;;;;6.22;1.02;;;9.00;99.90;;;;;;5097214;28;20118;-66
2024/02/04 09:44:53;;;;;;;4.10;0.80;;;9.00;99.90;;;;;;5053132;28;20493;-66
2024/02/04 09:47:20;;;;;;;6.43;1.10;;;9.00;99.90;;;;;;5079347;28;20047;-68
2024/02/04 09:49:46;;;;;;;10.15;1.13;;;9.10;99.90;;;;;;5092972;28;20101;-64
2024/02/04 09:52:13;;;;;;;7.70;1.13;;;9.10;99.90;;;;;;5113921;27;20036;-64
2024/02/04 09:54:45;;;;;;;5.75;1.00;;;9.10;99.90;;;;;;5081297;28;20085;-63
2024/02/04 09:57:12;;;;;;;7.55;1.20;;;9.10;99.90;;;;;;5095233;28;20089;-66
2024/02/04 09:59:38;;;;;;;6.05;1.20;;;9.10;99.90;;;;;;5074346;28;20110;-63
2024/02/04 10:02:05;;;;;;;9.27;1.60;;;9.20;99.90;;;;;;5095059;28;20136;-63
2024/02/04 10:04:31;;;;;;;6.22;1.52;;;9.20;99.90;;;;;;5076591;28;20043;-63
2024/02/04 10:06:56;;;;;;;4.85;1.13;;;9.30;99.90;;;;;;5077933;28;20036;-64
2024/02/04 10:09:22;;;;;;;5.65;0.88;;;9.30;99.90;;;;;;5094361;28;20082;-66
2024/02/04 10:11:48;;;;;;;5.03;1.13;;;9.40;99.90;;;;;;5092089;28;20075;-63
2024/02/04 10:14:15;;;;;;;6.60;1.60;;;9.60;99.90;;;;;;5108194;27;20040;-64
2024/02/04 10:16:41;;;;;;;9.93;1.38;;;9.60;99.90;;;;;;5106010;27;20116;-64
2024/02/04 10:19:07;;;;;;;6.82;0.70;;;9.60;99.90;;;;;;5094414;28;21017;-64
2024/02/04 10:21:33;;;;;;;5.20;1.02;;;9.70;99.90;;;;;;5063849;28;20108;-64
2024/02/04 10:23:58;;;;;;;3.33;0.68;;;9.80;99.90;;;;;;5094622;28;20173;-64
2024/02/04 10:26:31;;;;;;;7.97;1.23;;;9.80;99.90;;;;;;5074307;28;20121;-63
2024/02/04 10:28:58;;;;;;;5.70;1.10;;;9.80;99.90;;;;;;5092897;28;20877;-63
2024/02/04 10:31:24;;;;;;;8.82;0.80;;;9.80;99.90;;;;;;5073969;28;20048;-64
2024/02/04 10:33:51;;;;;;;4.80;0.60;;;9.90;99.90;;;;;;5092921;28;20380;-63
2024/02/04 10:36:17;;;;;;;5.95;1.10;;;9.80;99.90;;;;;;5079108;28;20498;-61
2024/02/04 10:38:43;;;;;;;4.68;1.08;;;9.80;99.90;;;;;;5057208;28;20084;-65
2024/02/04 10:41:14;;;;;;;6.50;0.57;;;9.80;99.90;;;;;;5095272;28;20126;-63
2024/02/04 10:43:43;;;;;;;3.28;0.68;;;9.80;99.90;;;;;;5111680;28;20054;-64
2024/02/04 10:46:23;;;;;;;4.47;0.75;;;9.90;99.90;;;;;;5109531;28;20036;-64
2024/02/04 10:48:57;;;;;;;6.18;1.10;;;9.80;99.90;;;;;;5093605;28;20440;-64
2024/02/04 10:51:28;;;;;;;7.97;0.88;;;9.80;99.90;;;;;;5066399;28;20041;-64
2024/02/04 10:53:56;;;;;;;3.95;0.50;;;9.80;99.90;;;;;;5076213;28;20085;-64
2024/02/04 10:56:44;;;;;;;7.07;1.05;;;9.90;99.90;;;;;;5108539;28;20119;-64
2024/02/04 10:59:11;;;;;;;5.40;1.08;;;9.90;99.90;;;;;;5094940;28;20035;-64
2024/02/04 11:01:41;;;;;;;3.35;0.85;;;10.00;99.90;;;;;;5070285;28;20078;-64
2024/02/04 11:04:10;;;;;;;7.80;0.80;;;10.10;99.90;;;;;;5090427;28;20123;-64
2024/02/04 11:06:37;;;;;;;6.05;1.38;;;10.10;99.90;;;;;;5076421;28;20039;-64
2024/02/04 11:09:05;;;;;;;7.47;1.52;;;10.10;99.90;;;;;;5071175;28;20494;-64
2024/02/04 11:11:32;;;;;;;6.53;0.50;;;10.10;99.90;;;;;;5076556;28;20055;-64
2024/02/04 11:14:04;;;;;;;5.63;0.93;;;10.10;99.90;;;;;;5087062;28;20305;-64
2024/02/04 11:16:44;;;;;;;6.32;0.80;;;10.10;99.90;;;;;;5053688;28;20051;-64
2024/02/04 11:19:35;;;;;;;4.60;0.80;;;10.00;99.90;;;;;;5075333;28;20044;-64
2024/02/04 11:22:40;;;;;;;5.57;1.00;;;10.00;99.90;;;;;;5095856;28;20131;-64
2024/02/04 11:25:35;;;;;;;3.30;0.68;;;9.90;99.90;;;;;;5075502;28;20051;-64
2024/02/04 11:28:02;;;;;;;4.20;0.85;;;9.90;99.90;;;;;;5080386;28;20074;-64
2024/02/04 11:30:32;;;;;;;4.30;1.08;;;9.90;99.90;;;;;;5070140;28;20493;-64
2024/02/04 11:33:00;;;;;;;3.28;1.30;;;9.90;99.90;;;;;;5078905;28;20040;-64
2024/02/04 11:35:26;;;;;;;4.10;1.00;;;9.90;99.90;;;;;;5077110;28;20051;-64
2024/02/04 11:37:54;;;;;;;6.47;1.55;;;9.90;99.90;;;;;;5097270;28;20024;-64
2024/02/04 11:40:23;;;;;;;3.83;1.00;;;9.90;99.90;;;;;;5072941;28;20484;-64
2024/02/04 11:42:48;;;;;;;2.47;0.60;;;10.00;99.90;;;;;;5075931;28;20054;-65
2024/02/04 11:45:14;;;;;;;3.83;0.47;;;10.00;99.90;;;;;;5076825;28;20052;-64
2024/02/04 11:47:41;;;;;;;3.97;0.93;;;10.00;99.90;;;;;;5078317;28;20040;-64
2024/02/04 11:50:09;;;;;;;5.53;1.10;;;10.10;99.90;;;;;;5078477;28;20509;-64
2024/02/04 11:52:34;;;;;;;4.47;0.73;;;10.00;99.90;;;;;;5098454;28;20058;-64
2024/02/04 11:55:01;;;;;;;2.45;1.30;;;10.00;99.90;;;;;;5077519;28;20486;-64
2024/02/04 11:57:26;;;;;;;3.75;0.80;;;10.10;99.90;;;;;;5091040;28;20036;-64
2024/02/04 11:59:57;;;;;;;1.67;0.50;;;10.10;99.90;;;;;;5075976;28;20051;-64
2024/02/04 12:02:23;;;;;;;4.78;0.85;;;10.10;99.90;;;;;;5097967;28;20054;-64
2024/02/04 12:04:49;;;;;;;5.53;0.60;;;10.00;99.90;;;;;;5112563;27;20477;-64
2024/02/04 12:07:15;;;;;;;2.53;0.73;;;10.10;99.90;;;;;;5062985;28;20039;-64
2024/02/04 12:09:44;;;;;;;4.13;0.70;;;10.10;99.90;;;;;;5096466;28;20043;-64
2024/02/04 12:12:11;;;;;;;6.05;1.08;;;10.00;99.90;;;;;;5078588;28;20367;-64
2024/02/04 12:14:38;;;;;;;5.30;1.10;;;10.00;99.90;;;;;;5077901;28;20036;-64
2024/02/04 12:17:09;;;;;;;4.75;1.20;;;10.00;99.90;;;;;;5095522;28;20111;-64
2024/02/04 12:19:35;;;;;;;5.15;1.00;;;10.10;99.90;;;;;;5080248;28;20066;-64
2024/02/04 12:22:01;;;;;;;4.63;0.57;;;10.10;99.90;;;;;;5096372;28;20363;-64
2024/02/04 12:24:27;;;;;;;9.50;1.30;;;10.10;99.90;;;;;;5080249;28;20065;-64
2024/02/04 12:26:53;;;;;;;5.45;0.80;;;10.10;99.90;;;;;;5072631;28;20044;-64
2024/02/04 12:29:18;;;;;;;3.22;0.30;;;10.10;99.90;;;;;;5076968;28;20607;-64
2024/02/04 12:31:45;;;;;;;5.88;1.38;;;10.10;99.90;;;;;;5107595;27;20044;-64
2024/02/04 12:34:12;;;;;;;3.33;0.68;;;10.10;99.90;;;;;;5079496;28;20028;-64
2024/02/04 12:36:37;;;;;;;5.00;0.50;;;10.00;99.90;;;;;;5078391;28;20052;-64
2024/02/04 12:39:04;;;;;;;2.70;0.40;;;10.00;99.90;;;;;;5097532;28;20039;-64
2024/02/04 12:41:30;;;;;;;4.82;0.50;;;10.00;99.90;;;;;;5076787;28;20043;-64
2024/02/04 12:44:02;;;;;;;4.75;1.08;;;9.90;99.90;;;;;;5095008;28;20028;-64
2024/02/04 12:46:28;;;;;;;4.57;0.77;;;9.80;99.90;;;;;;5107092;27;20442;-64
2024/02/04 12:48:55;;;;;;;5.57;1.55;;;9.90;99.90;;;;;;5077230;28;20219;-64
2024/02/04 12:51:38;;;;;;;5.05;0.65;;;9.80;99.90;;;;;;5078972;28;20043;-64